sensor_id;sensor_type;location;lat;lon;timestamp;temperature;humidity
2439;DHT22;14509;47.992;7.848;2024-02-04T05:09:21;13.00;51.60
2439;DHT22;14509;47.992;7.848;2024-02-04T05:11:23;13.00;51.60
2439;DHT22;14509;47.992;7.848;2024-02-04T05:13:24;13.00;51.60
2439;DHT22;14509;47.992;7.848;2024-02-04T05:15:26;13.80;52.10
2439;DHT22;14509;47.992;7.848;2024-02-04T05:17:30;13.20;51.50
2439;DHT22;14509;47.992;7.848;2024-02-04T05:19:32;13.10;51.40
2439;DHT22;14509;47.992;7.848;2024-02-04T05:21:37;13.10;51.30
2439;DHT22;14509;47.992;7.848;2024-02-04T05:23:40;13.80;51.90
2439;DHT22;14509;47.992;7.848;2024-02-04T05:25:43;13.10;51.30
2439;DHT22;14509;47.992;7.848;2024-02-04T05:27:45;14.70;52.60
2439;DHT22;14509;47.992;7.848;2024-02-04T05:29:46;13.10;51.30
2439;DHT22;14509;47.992;7.848;2024-02-04T05:31:48;13.10;51.20
2439;DHT22;14509;47.992;7.848;2024-02-04T05:33:52;13.00;51.20
2439;DHT22;14509;47.992;7.848;2024-02-04T05:35:53;13.00;51.30
2439;DHT22;14509;47.992;7.848;2024-02-04T05:37:55;12.90;51.30
2439;DHT22;14509;47.992;7.848;2024-02-04T05:39:57;12.80;51.40
2439;DHT22;14509;47.992;7.848;2024-02-04T05:42:00;12.80;51.60
2439;DHT22;14509;47.992;7.848;2024-02-04T05:44:02;12.70;51.60
2439;DHT22;14509;47.992;7.848;2024-02-04T05:46:04;12.70;51.70
2439;DHT22;14509;47.992;7.848;2024-02-04T05:48:07;15.10;53.70
2439;DHT22;14509;47.992;7.848;2024-02-04T05:50:09;12.70;51.80
2439;DHT22;14509;47.992;7.848;2024-02-04T05:52:11;12.70;51.80
2439;DHT22;14509;47.992;7.848;2024-02-04T05:54:13;12.60;51.80
2439;DHT22;14509;47.992;7.848;2024-02-04T05:56:16;12.60;51.90
2439;DHT22;14509;47.992;7.848;2024-02-04T05:58:19;12.60;51.90
2439;DHT22;14509;47.992;7.848;2024-02-04T06:00:21;14.10;53.20
2439;DHT22;14509;47.992;7.848;2024-02-04T06:02:23;12.50;52.00
2439;DHT22;14509;47.992;7.848;2024-02-04T06:04:25;12.60;52.10
2439;DHT22;14509;47.992;7.848;2024-02-04T06:06:27;12.60;52.00
2439;DHT22;14509;47.992;7.848;2024-02-04T06:08:29;12.50;51.90
2439;DHT22;14509;47.992;7.848;2024-02-04T06:10:31;12.50;51.90
2439;DHT22;14509;47.992;7.848;2024-02-04T06:12:32;12.40;51.80
2439;DHT22;14509;47.992;7.848;2024-02-04T06:14:36;12.40;51.80
2439;DHT22;14509;47.992;7.848;2024-02-04T06:16:40;12.30;51.80
2439;DHT22;14509;47.992;7.848;2024-02-04T06:18:42;12.20;51.90
2439;DHT22;14509;47.992;7.848;2024-02-04T06:20:44;12.20;52.20
2439;DHT22;14509;47.992;7.848;2024-02-04T06:22:45;12.10;52.30
2439;DHT22;14509;47.992;7.848;2024-02-04T06:24:46;12.00;52.30
2439;DHT22;14509;47.992;7.848;2024-02-04T06:26:49;11.90;52.60
2439;DHT22;14509;47.992;7.848;2024-02-04T06:28:51;12.40;53.30
2439;DHT22;14509;47.992;7.848;2024-02-04T06:30:54;11.80;53.00
2439;DHT22;14509;47.992;7.848;2024-02-04T06:32:56;11.70;53.10
2439;DHT22;14509;47.992;7.848;2024-02-04T06:34:59;11.70;53.30
2439;DHT22;14509;47.992;7.848;2024-02-04T06:37:01;11.70;53.30
2439;DHT22;14509;47.992;7.848;2024-02-04T06:39:03;11.60;53.60
2439;DHT22;14509;47.992;7.848;2024-02-04T06:41:05;11.60;53.80
2439;DHT22;14509;47.992;7.848;2024-02-04T06:43:07;11.50;53.80
2439;DHT22;14509;47.992;7.848;2024-02-04T06:45:09;11.50;54.00
2439;DHT22;14509;47.992;7.848;2024-02-04T06:47:11;11.50;54.00
2439;DHT22;14509;47.992;7.848;2024-02-04T06:49:14;11.40;54.00
2439;DHT22;14509;47.992;7.848;2024-02-04T06:51:18;11.40;54.00
2439;DHT22;14509;47.992;7.848;2024-02-04T06:53:20;11.40;54.10
2439;DHT22;14509;47.992;7.848;2024-02-04T06:55:22;11.40;54.20
2439;DHT22;14509;47.992;7.848;2024-02-04T06:57:24;11.40;54.20
2439;DHT22;14509;47.992;7.848;2024-02-04T06:59:25;11.30;54.30
2439;DHT22;14509;47.992;7.848;2024-02-04T07:01:27;11.30;54.50
2439;DHT22;14509;47.992;7.848;2024-02-04T07:03:30;11.40;54.60
2439;DHT22;14509;47.992;7.848;2024-02-04T07:05:32;11.30;54.50
2439;DHT22;14509;47.992;7.848;2024-02-04T07:07:34;11.40;54.70
2439;DHT22;14509;47.992;7.848;2024-02-04T07:09:36;11.30;54.70
2439;DHT22;14509;47.992;7.848;2024-02-04T07:11:38;11.90;55.20
2439;DHT22;14509;47.992;7.848;2024-02-04T07:13:39;11.30;54.90
2439;DHT22;14509;47.992;7.848;2024-02-04T07:15:40;11.20;55.00
2439;DHT22;14509;47.992;7.848;2024-02-04T07:17:42;11.20;55.10
2439;DHT22;14509;47.992;7.848;2024-02-04T07:19:45;11.20;55.00
2439;DHT22;14509;47.992;7.848;2024-02-04T07:21:47;11.20;55.00
2439;DHT22;14509;47.992;7.848;2024-02-04T07:23:49;11.20;55.00
2439;DHT22;14509;47.992;7.848;2024-02-04T07:25:50;13.30;56.70
2439;DHT22;14509;47.992;7.848;2024-02-04T07:27:52;11.30;55.00
2439;DHT22;14509;47.992;7.848;2024-02-04T07:29:54;12.80;56.00
2439;DHT22;14509;47.992;7.848;2024-02-04T07:31:58;11.30;54.80
2439;DHT22;14509;47.992;7.848;2024-02-04T07:34:00;11.40;54.80
2439;DHT22;14509;47.992;7.848;2024-02-04T07:36:03;11.40;54.70
2439;DHT22;14509;47.992;7.848;2024-02-04T07:38:05;11.40;54.50
2439;DHT22;14509;47.992;7.848;2024-02-04T07:40:08;11.50;54.40
2439;DHT22;14509;47.992;7.848;2024-02-04T07:42:10;11.50;54.30
2439;DHT22;14509;47.992;7.848;2024-02-04T07:44:12;11.50;54.20
2439;DHT22;14509;47.992;7.848;2024-02-04T07:46:14;11.60;54.00
2439;DHT22;14509;47.992;7.848;2024-02-04T07:48:16;11.60;54.00
2439;DHT22;14509;47.992;7.848;2024-02-04T07:50:18;11.60;53.90
2439;DHT22;14509;47.992;7.848;2024-02-04T07:52:21;11.70;53.70
2439;DHT22;14509;47.992;7.848;2024-02-04T07:54:22;11.70;53.50
2439;DHT22;14509;47.992;7.848;2024-02-04T07:56:23;11.80;53.60
2439;DHT22;14509;47.992;7.848;2024-02-04T07:58:25;11.80;53.50
2439;DHT22;14509;47.992;7.848;2024-02-04T08:00:28;11.80;53.40
2439;DHT22;14509;47.992;7.848;2024-02-04T08:02:30;12.00;53.50
2439;DHT22;14509;47.992;7.848;2024-02-04T08:04:31;13.50;54.50
2439;DHT22;14509;47.992;7.848;2024-02-04T08:06:33;11.90;53.00
2439;DHT22;14509;47.992;7.848;2024-02-04T08:08:37;11.90;52.90
2439;DHT22;14509;47.992;7.848;2024-02-04T08:10:39;12.00;52.80
2439;DHT22;14509;47.992;7.848;2024-02-04T08:12:41;12.00;52.70
2439;DHT22;14509;47.992;7.848;2024-02-04T08:14:42;12.10;52.60
2439;DHT22;14509;47.992;7.848;2024-02-04T08:16:43;12.10;52.50
2439;DHT22;14509;47.992;7.848;2024-02-04T08:18:47;12.20;52.40
2439;DHT22;14509;47.992;7.848;2024-02-04T08:20:49;13.40;53.30
2439;DHT22;14509;47.992;7.848;2024-02-04T08:22:51;12.20;52.10
2439;DHT22;14509;47.992;7.848;2024-02-04T08:24:55;12.30;52.20
2439;DHT22;14509;47.992;7.848;2024-02-04T08:26:57;12.40;52.10
2439;DHT22;14509;47.992;7.848;2024-02-04T08:28:59;12.50;51.90
2439;DHT22;14509;47.992;7.848;2024-02-04T08:31:01;12.50;51.80
2439;DHT22;14509;47.992;7.848;2024-02-04T08:33:03;12.50;51.60
2439;DHT22;14509;47.992;7.848;2024-02-04T08:35:06;12.70;51.50
2439;DHT22;14509;47.992;7.848;2024-02-04T08:37:08;12.80;51.40
2439;DHT22;14509;47.992;7.848;2024-02-04T08:39:10;12.90;51.20
2439;DHT22;14509;47.992;7.848;2024-02-04T08:41:12;13.00;50.90
2439;DHT22;14509;47.992;7.848;2024-02-04T08:43:14;13.30;50.80
2439;DHT22;14509;47.992;7.848;2024-02-04T08:45:16;13.20;50.40
2439;DHT22;14509;47.992;7.848;2024-02-04T08:47:17;13.30;50.20
2439;DHT22;14509;47.992;7.848;2024-02-04T08:49:19;13.40;50.10
2439;DHT22;14509;47.992;7.848;2024-02-04T08:51:21;13.40;49.90
2439;DHT22;14509;47.992;7.848;2024-02-04T08:53:23;13.60;49.80
2439;DHT22;14509;47.992;7.848;2024-02-04T08:55:24;13.60;49.50
2439;DHT22;14509;47.992;7.848;2024-02-04T08:57:28;14.30;49.70
2439;DHT22;14509;47.992;7.848;2024-02-04T08:59:29;15.70;50.60
2439;DHT22;14509;47.992;7.848;2024-02-04T09:01:31;13.90;48.70
2439;DHT22;14509;47.992;7.848;2024-02-04T09:03:33;14.00;48.50
2439;DHT22;14509;47.992;7.848;2024-02-04T09:05:35;14.00;48.30
2439;DHT22;14509;47.992;7.848;2024-02-04T09:07:37;14.10;48.20
2439;DHT22;14509;47.992;7.848;2024-02-04T09:09:39;14.10;48.00
2439;DHT22;14509;47.992;7.848;2024-02-04T09:11:41;14.10;48.00
2439;DHT22;14509;47.992;7.848;2024-02-04T09:13:44;15.70;49.40
2439;DHT22;14509;47.992;7.848;2024-02-04T09:15:46;14.20;48.10
2439;DHT22;14509;47.992;7.848;2024-02-04T09:17:48;14.90;48.70
2439;DHT22;14509;47.992;7.848;2024-02-04T09:19:50;14.40;48.00
2439;DHT22;14509;47.992;7.848;2024-02-04T09:21:52;14.40;47.70
2439;DHT22;14509;47.992;7.848;2024-02-04T09:23:54;14.50;47.50
2439;DHT22;14509;47.992;7.848;2024-02-04T09:25:57;14.50;46.80
2439;DHT22;14509;47.992;7.848;2024-02-04T09:27:59;16.90;48.60
2439;DHT22;14509;47.992;7.848;2024-02-04T09:30:03;14.50;46.80
2439;DHT22;14509;47.992;7.848;2024-02-04T09:32:06;14.50;46.90
2439;DHT22;14509;47.992;7.848;2024-02-04T09:34:08;14.60;46.70
2439;DHT22;14509;47.992;7.848;2024-02-04T09:36:10;14.60;46.70
2439;DHT22;14509;47.992;7.848;2024-02-04T09:38:12;14.70;46.90
2439;DHT22;14509;47.992;7.848;2024-02-04T09:40:14;14.70;46.90
2439;DHT22;14509;47.992;7.848;2024-02-04T09:42:20;14.80;46.80
2439;DHT22;14509;47.992;7.848;2024-02-04T09:44:22;16.40;47.90
2439;DHT22;14509;47.992;7.848;2024-02-04T09:46:27;15.40;46.90
2439;DHT22;14509;47.992;7.848;2024-02-04T09:48:31;15.10;46.20
2439;DHT22;14509;47.992;7.848;2024-02-04T09:50:32;15.20;46.00
2439;DHT22;14509;47.992;7.848;2024-02-04T09:52:37;15.40;46.00
2439;DHT22;14509;47.992;7.848;2024-02-04T09:54:44;15.40;45.80
2439;DHT22;14509;47.992;7.848;2024-02-04T09:56:46;15.50;45.50
2439;DHT22;14509;47.992;7.848;2024-02-04T09:58:51;15.60;45.30
2439;DHT22;14509;47.992;7.848;2024-02-04T10:00:54;15.70;44.90
2439;DHT22;14509;47.992;7.848;2024-02-04T10:02:58;16.50;45.50
2439;DHT22;14509;47.992;7.848;2024-02-04T10:05:00;16.50;45.30
2439;DHT22;14509;47.992;7.848;2024-02-04T10:07:01;15.90;44.50
2439;DHT22;14509;47.992;7.848;2024-02-04T10:09:03;15.90;44.20
2439;DHT22;14509;47.992;7.848;2024-02-04T10:11:05;15.90;43.90
2439;DHT22;14509;47.992;7.848;2024-02-04T10:13:07;15.80;43.80
2439;DHT22;14509;47.992;7.848;2024-02-04T10:15:10;15.70;43.90
2439;DHT22;14509;47.992;7.848;2024-02-04T10:17:15;15.60;44.10
2439;DHT22;14509;47.992;7.848;2024-02-04T10:19:18;16.10;44.90
2439;DHT22;14509;47.992;7.848;2024-02-04T10:21:21;15.30;44.60
2439;DHT22;14509;47.992;7.848;2024-02-04T10:23:24;15.10;45.00
2439;DHT22;14509;47.992;7.848;2024-02-04T10:25:26;15.00;45.40
2439;DHT22;14509;47.992;7.848;2024-02-04T10:27:28;14.70;45.90
2439;DHT22;14509;47.992;7.848;2024-02-04T10:29:30;14.60;46.60
2439;DHT22;14509;47.992;7.848;2024-02-04T10:31:33;14.40;46.80
2439;DHT22;14509;47.992;7.848;2024-02-04T10:33:35;14.30;47.30
2439;DHT22;14509;47.992;7.848;2024-02-04T10:35:38;14.50;47.90
2439;DHT22;14509;47.992;7.848;2024-02-04T10:37:40;14.10;47.80
2439;DHT22;14509;47.992;7.848;2024-02-04T10:39:42;14.20;48.10
2439;DHT22;14509;47.992;7.848;2024-02-04T10:41:49;14.30;48.00
2439;DHT22;14509;47.992;7.848;2024-02-04T10:43:52;14.20;47.90
2439;DHT22;14509;47.992;7.848;2024-02-04T10:45:56;14.30;48.10
2439;DHT22;14509;47.992;7.848;2024-02-04T10:48:01;14.40;47.90
2439;DHT22;14509;47.992;7.848;2024-02-04T10:50:04;14.50;47.80
2439;DHT22;14509;47.992;7.848;2024-02-04T10:52:07;14.60;47.20
2439;DHT22;14509;47.992;7.848;2024-02-04T10:54:11;14.90;47.50
2439;DHT22;14509;47.992;7.848;2024-02-04T10:56:21;14.60;47.80
2439;DHT22;14509;47.992;7.848;2024-02-04T10:58:24;14.60;47.00
2439;DHT22;14509;47.992;7.848;2024-02-04T11:00:27;15.30;47.70
2439;DHT22;14509;47.992;7.848;2024-02-04T11:02:31;14.90;47.20
2439;DHT22;14509;47.992;7.848;2024-02-04T11:04:35;14.70;46.80
2439;DHT22;14509;47.992;7.848;2024-02-04T11:06:38;14.80;46.80
2439;DHT22;14509;47.992;7.848;2024-02-04T17:11:17;13.30;51.80
2439;DHT22;14509;47.992;7.848;2024-02-04T17:13:19;13.30;51.90
2439;DHT22;14509;47.992;7.848;2024-02-04T17:15:22;13.20;52.00
2439;DHT22;14509;47.992;7.848;2024-02-04T17:17:23;13.20;52.00
2439;DHT22;14509;47.992;7.848;2024-02-04T17:19:33;13.20;52.70
2439;DHT22;14509;47.992;7.848;2024-02-04T17:21:39;13.20;52.30
2439;DHT22;14509;47.992;7.848;2024-02-04T17:23:43;13.00;52.30
2439;DHT22;14509;47.992;7.848;2024-02-04T17:25:54;13.10;52.50
2439;DHT22;14509;47.992;7.848;2024-02-04T17:27:59;12.90;52.30
2439;DHT22;14509;47.992;7.848;2024-02-04T17:30:05;13.00;52.50
2439;DHT22;14509;47.992;7.848;2024-02-04T17:32:10;13.00;52.70
2439;DHT22;14509;47.992;7.848;2024-02-04T17:34:12;13.00;52.70
2439;DHT22;14509;47.992;7.848;2024-02-04T17:36:17;13.00;52.70
2439;DHT22;14509;47.992;7.848;2024-02-04T17:38:34;13.00;52.70
2439;DHT22;14509;47.992;7.848;2024-02-04T17:40:36;13.00;52.60
2439;DHT22;14509;47.992;7.848;2024-02-04T17:42:37;13.00;52.60
2439;DHT22;14509;47.992;7.848;2024-02-04T17:44:41;13.10;52.60
2439;DHT22;14509;47.992;7.848;2024-02-04T17:46:43;13.00;52.50
2439;DHT22;14509;47.992;7.848;2024-02-04T17:48:47;13.20;52.60
2439;DHT22;14509;47.992;7.848;2024-02-04T17:50:48;12.90;52.30
2439;DHT22;14509;47.992;7.848;2024-02-04T17:52:50;12.90;52.40
2439;DHT22;14509;47.992;7.848;2024-02-04T17:54:52;12.90;52.50
2439;DHT22;14509;47.992;7.848;2024-02-04T17:56:55;13.10;52.60
2439;DHT22;14509;47.992;7.848;2024-02-04T17:58:57;12.90;52.50
2439;DHT22;14509;47.992;7.848;2024-02-04T18:01:00;12.90;52.70
2439;DHT22;14509;47.992;7.848;2024-02-04T18:03:03;12.80;52.80
2439;DHT22;14509;47.992;7.848;2024-02-04T18:05:08;12.80;52.90
2439;DHT22;14509;47.992;7.848;2024-02-04T18:07:10;12.80;53.00
2439;DHT22;14509;47.992;7.848;2024-02-04T18:09:10;12.80;52.90
2439;DHT22;14509;47.992;7.848;2024-02-04T18:11:14;13.50;53.70
2439;DHT22;14509;47.992;7.848;2024-02-04T18:13:17;13.00;53.40
2439;DHT22;14509;47.992;7.848;2024-02-04T18:15:19;12.90;53.20
2439;DHT22;14509;47.992;7.848;2024-02-04T18:17:22;12.70;53.10
2439;DHT22;14509;47.992;7.848;2024-02-04T18:19:24;12.70;53.10
2439;DHT22;14509;47.992;7.848;2024-02-04T18:21:26;13.00;53.40
2439;DHT22;14509;47.992;7.848;2024-02-04T18:23:28;14.50;54.60
2439;DHT22;14509;47.992;7.848;2024-02-04T18:25:30;14.30;54.50
2439;DHT22;14509;47.992;7.848;2024-02-04T18:27:32;12.60;53.80
2439;DHT22;14509;47.992;7.848;2024-02-04T18:29:39;12.60;53.30
2439;DHT22;14509;47.992;7.848;2024-02-04T18:31:40;13.00;53.70
2439;DHT22;14509;47.992;7.848;2024-02-04T18:33:47;12.60;53.40
2439;DHT22;14509;47.992;7.848;2024-02-04T18:35:51;13.20;53.90
2439;DHT22;14509;47.992;7.848;2024-02-04T18:37:52;12.60;53.40
2439;DHT22;14509;47.992;7.848;2024-02-04T18:39:55;12.60;53.50
2439;DHT22;14509;47.992;7.848;2024-02-04T18:41:59;12.70;53.50
2439;DHT22;14509;47.992;7.848;2024-02-04T18:44:01;12.70;53.40
2439;DHT22;14509;47.992;7.848;2024-02-04T18:46:06;12.70;53.40
2439;DHT22;14509;47.992;7.848;2024-02-04T18:48:08;13.00;53.80
2439;DHT22;14509;47.992;7.848;2024-02-04T18:50:12;12.70;53.50
2439;DHT22;14509;47.992;7.848;2024-02-04T18:52:14;12.70;53.40
2439;DHT22;14509;47.992;7.848;2024-02-04T18:54:15;12.80;53.40
2439;DHT22;14509;47.992;7.848;2024-02-04T18:56:17;12.90;53.40
2439;DHT22;14509;47.992;7.848;2024-02-04T18:58:18;12.90;53.20
2439;DHT22;14509;47.992;7.848;2024-02-04T19:00:20;12.90;53.00
2439;DHT22;14509;47.992;7.848;2024-02-04T19:02:22;13.00;53.00
2439;DHT22;14509;47.992;7.848;2024-02-04T19:04:24;13.30;53.00
2439;DHT22;14509;47.992;7.848;2024-02-04T19:06:28;13.10;52.60
2439;DHT22;14509;47.992;7.848;2024-02-04T19:08:31;13.10;52.50
2439;DHT22;14509;47.992;7.848;2024-02-04T19:10:32;13.30;52.50
2439;DHT22;14509;47.992;7.848;2024-02-04T19:12:34;13.20;52.20
2439;DHT22;14509;47.992;7.848;2024-02-04T19:14:38;13.20;52.20
2439;DHT22;14509;47.992;7.848;2024-02-04T19:16:41;13.10;52.00
2439;DHT22;14509;47.992;7.848;2024-02-04T19:18:42;13.10;52.10
2439;DHT22;14509;47.992;7.848;2024-02-04T19:20:44;13.10;52.10
2439;DHT22;14509;47.992;7.848;2024-02-04T19:22:48;13.10;52.20
2439;DHT22;14509;47.992;7.848;2024-02-04T19:24:51;13.00;52.30
2439;DHT22;14509;47.992;7.848;2024-02-04T19:26:53;13.00;52.30
2439;DHT22;14509;47.992;7.848;2024-02-04T19:28:54;12.90;52.30
2439;DHT22;14509;47.992;7.848;2024-02-04T19:30:55;12.90;52.40
2439;DHT22;14509;47.992;7.848;2024-02-04T19:32:57;12.90;52.60
2439;DHT22;14509;47.992;7.848;2024-02-04T19:34:59;12.80;53.20
2439;DHT22;14509;47.992;7.848;2024-02-04T19:37:01;12.70;52.50
2439;DHT22;14509;47.992;7.848;2024-02-04T19:39:04;12.70;52.60
2439;DHT22;14509;47.992;7.848;2024-02-04T19:41:07;12.70;52.70
2439;DHT22;14509;47.992;7.848;2024-02-04T19:43:09;12.70;52.70
2439;DHT22;14509;47.992;7.848;2024-02-04T19:45:11;12.70;52.80
2439;DHT22;14509;47.992;7.848;2024-02-04T19:47:13;13.00;53.20
2439;DHT22;14509;47.992;7.848;2024-02-04T19:49:15;12.60;52.90
2439;DHT22;14509;47.992;7.848;2024-02-04T19:51:16;12.60;52.90
2439;DHT22;14509;47.992;7.848;2024-02-04T19:53:19;12.60;53.00
2439;DHT22;14509;47.992;7.848;2024-02-04T19:55:21;12.60;53.00
2439;DHT22;14509;47.992;7.848;2024-02-04T19:57:23;12.60;53.10
2439;DHT22;14509;47.992;7.848;2024-02-04T19:59:25;12.60;53.10
2439;DHT22;14509;47.992;7.848;2024-02-04T20:01:27;12.60;53.10
2439;DHT22;14509;47.992;7.848;2024-02-04T20:03:28;12.50;53.20
2439;DHT22;14509;47.992;7.848;2024-02-04T20:05:31;12.60;53.30
2439;DHT22;14509;47.992;7.848;2024-02-04T20:07:32;12.60;53.30
2439;DHT22;14509;47.992;7.848;2024-02-04T20:09:35;12.60;53.30
2439;DHT22;14509;47.992;7.848;2024-02-04T20:11:37;12.60;53.20
2439;DHT22;14509;47.992;7.848;2024-02-04T20:13:39;13.20;53.60
2439;DHT22;14509;47.992;7.848;2024-02-04T20:15:43;13.70;53.90
2439;DHT22;14509;47.992;7.848;2024-02-04T20:17:45;12.70;53.10
2439;DHT22;14509;47.992;7.848;2024-02-04T20:19:47;12.70;52.80
2439;DHT22;14509;47.992;7.848;2024-02-04T20:21:48;12.70;52.60
2439;DHT22;14509;47.992;7.848;2024-02-04T20:23:50;12.80;52.60
2439;DHT22;14509;47.992;7.848;2024-02-04T20:25:52;12.80;52.60
2439;DHT22;14509;47.992;7.848;2024-02-04T20:27:57;12.80;53.30
2439;DHT22;14509;47.992;7.848;2024-02-04T20:29:59;13.00;52.90
2439;DHT22;14509;47.992;7.848;2024-02-04T20:32:00;12.80;52.80
2439;DHT22;14509;47.992;7.848;2024-02-04T20:34:02;13.20;53.20
2439;DHT22;14509;47.992;7.848;2024-02-04T20:36:08;12.70;52.90
2439;DHT22;14509;47.992;7.848;2024-02-04T20:38:10;12.70;53.00
2439;DHT22;14509;47.992;7.848;2024-02-04T20:40:12;12.60;53.00
2439;DHT22;14509;47.992;7.848;2024-02-04T20:42:15;12.70;53.20
2439;DHT22;14509;47.992;7.848;2024-02-04T20:44:18;13.50;53.90
2439;DHT22;14509;47.992;7.848;2024-02-04T20:46:20;12.70;53.30
2439;DHT22;14509;47.992;7.848;2024-02-04T20:48:23;12.70;53.30
2439;DHT22;14509;47.992;7.848;2024-02-04T20:50:24;12.70;53.30
2439;DHT22;14509;47.992;7.848;2024-02-04T20:52:26;12.80;53.30
2439;DHT22;14509;47.992;7.848;2024-02-04T20:54:28;12.80;53.30
2439;DHT22;14509;47.992;7.848;2024-02-04T20:56:30;12.80;53.10
2439;DHT22;14509;47.992;7.848;2024-02-04T20:58:32;13.00;53.20
2439;DHT22;14509;47.992;7.848;2024-02-04T21:00:36;12.90;53.00
2439;DHT22;14509;47.992;7.848;2024-02-04T21:02:38;13.80;53.60
2439;DHT22;14509;47.992;7.848;2024-02-04T21:04:42;13.00;53.00
2439;DHT22;14509;47.992;7.848;2024-02-04T21:06:44;13.00;52.90
2439;DHT22;14509;47.992;7.848;2024-02-04T21:08:47;13.00;52.80
2439;DHT22;14509;47.992;7.848;2024-02-04T21:10:49;13.10;52.80
2439;DHT22;14509;47.992;7.848;2024-02-04T21:12:51;13.10;52.70
2439;DHT22;14509;47.992;7.848;2024-02-04T21:14:53;13.10;52.60
2439;DHT22;14509;47.992;7.848;2024-02-04T21:16:57;13.10;52.50
2439;DHT22;14509;47.992;7.848;2024-02-04T21:18:59;13.10;52.50
2439;DHT22;14509;47.992;7.848;2024-02-04T21:21:02;13.20;52.50
2439;DHT22;14509;47.992;7.848;2024-02-04T21:23:05;13.20;52.40
2439;DHT22;14509;47.992;7.848;2024-02-04T21:25:08;13.20;52.30
2439;DHT22;14509;47.992;7.848;2024-02-04T21:27:10;13.20;52.20
2439;DHT22;14509;47.992;7.848;2024-02-04T21:29:11;13.20;52.20
2439;DHT22;14509;47.992;7.848;2024-02-04T21:31:13;14.30;53.10
2439;DHT22;14509;47.992;7.848;2024-02-04T21:33:17;13.20;52.20
2439;DHT22;14509;47.992;7.848;2024-02-04T21:35:19;14.20;53.00
2439;DHT22;14509;47.992;7.848;2024-02-04T21:37:21;13.30;52.30
2439;DHT22;14509;47.992;7.848;2024-02-04T21:39:23;13.20;52.20
2439;DHT22;14509;47.992;7.848;2024-02-04T21:41:25;14.70;53.40
2439;DHT22;14509;47.992;7.848;2024-02-04T21:43:27;13.30;52.30
2439;DHT22;14509;47.992;7.848;2024-02-04T21:45:28;13.30;52.30
2439;DHT22;14509;47.992;7.848;2024-02-04T21:47:30;13.20;52.20
2439;DHT22;14509;47.992;7.848;2024-02-04T21:49:34;13.20;52.20
2439;DHT22;14509;47.992;7.848;2024-02-04T21:51:35;13.20;52.10
2439;DHT22;14509;47.992;7.848;2024-02-04T21:53:38;14.80;53.40
2439;DHT22;14509;47.992;7.848;2024-02-04T21:55:39;13.20;52.10
2439;DHT22;14509;47.992;7.848;2024-02-04T21:57:41;13.20;52.10
2439;DHT22;14509;47.992;7.848;2024-02-04T21:59:43;13.20;52.20
2439;DHT22;14509;47.992;7.848;2024-02-04T22:01:45;13.20;52.20
2439;DHT22;14509;47.992;7.848;2024-02-04T22:03:46;13.10;52.20
2439;DHT22;14509;47.992;7.848;2024-02-04T22:05:50;13.10;52.20
2439;DHT22;14509;47.992;7.848;2024-02-04T22:07:52;13.00;52.20
2439;DHT22;14509;47.992;7.848;2024-02-04T22:09:53;13.00;52.20
2439;DHT22;14509;47.992;7.848;2024-02-04T22:11:54;13.00;52.30
2439;DHT22;14509;47.992;7.848;2024-02-04T22:13:56;13.70;53.00
2439;DHT22;14509;47.992;7.848;2024-02-04T22:15:58;12.90;52.40
2439;DHT22;14509;47.992;7.848;2024-02-04T22:18:00;12.90;52.50
2439;DHT22;14509;47.992;7.848;2024-02-04T22:20:02;13.10;53.20
2439;DHT22;14509;47.992;7.848;2024-02-04T22:22:06;12.90;52.40
2439;DHT22;14509;47.992;7.848;2024-02-04T22:24:08;12.90;52.10
2439;DHT22;14509;47.992;7.848;2024-02-04T22:26:10;12.90;52.40
2439;DHT22;14509;47.992;7.848;2024-02-04T22:28:12;12.80;52.30
2439;DHT22;14509;47.992;7.848;2024-02-04T22:30:14;12.90;52.30
2439;DHT22;14509;47.992;7.848;2024-02-04T22:32:16;12.80;52.40
2439;DHT22;14509;47.992;7.848;2024-02-04T22:34:17;13.90;53.20
2439;DHT22;14509;47.992;7.848;2024-02-04T22:36:21;12.90;52.30
2439;DHT22;14509;47.992;7.848;2024-02-04T22:38:29;12.90;52.10
2439;DHT22;14509;47.992;7.848;2024-02-04T22:40:31;12.90;52.00
2439;DHT22;14509;47.992;7.848;2024-02-04T22:42:33;12.90;52.00
2439;DHT22;14509;47.992;7.848;2024-02-04T22:44:34;12.90;51.90
2439;DHT22;14509;47.992;7.848;2024-02-04T22:46:36;13.10;52.10
2439;DHT22;14509;47.992;7.848;2024-02-04T22:48:38;13.00;52.00
2439;DHT22;14509;47.992;7.848;2024-02-04T22:50:40;12.90;51.80
2439;DHT22;14509;47.992;7.848;2024-02-04T22:52:41;13.00;51.80
2439;DHT22;14509;47.992;7.848;2024-02-04T22:54:45;12.90;51.70
2439;DHT22;14509;47.992;7.848;2024-02-04T22:56:46;12.90;51.70
2439;DHT22;14509;47.992;7.848;2024-02-04T22:58:48;12.90;51.70
2439;DHT22;14509;47.992;7.848;2024-02-04T23:00:50;12.80;51.60
2439;DHT22;14509;47.992;7.848;2024-02-04T23:02:52;13.20;52.00
2439;DHT22;14509;47.992;7.848;2024-02-04T23:04:53;12.70;51.70
2439;DHT22;14509;47.992;7.848;2024-02-04T23:06:55;12.60;51.80
2439;DHT22;14509;47.992;7.848;2024-02-04T23:08:57;12.60;51.90
2439;DHT22;14509;47.992;7.848;2024-02-04T23:11:00;12.50;52.20
2439;DHT22;14509;47.992;7.848;2024-02-04T23:13:03;12.40;52.30
2439;DHT22;14509;47.992;7.848;2024-02-04T23:15:06;12.30;52.50
2439;DHT22;14509;47.992;7.848;2024-02-04T23:17:08;12.30;52.60
2439;DHT22;14509;47.992;7.848;2024-02-04T23:19:11;12.20;52.60
2439;DHT22;14509;47.992;7.848;2024-02-04T23:21:13;12.20;52.70
2439;DHT22;14509;47.992;7.848;2024-02-04T23:23:14;12.20;52.70
2439;DHT22;14509;47.992;7.848;2024-02-04T23:25:16;12.20;52.80
2439;DHT22;14509;47.992;7.848;2024-02-04T23:27:18;12.30;52.90
2439;DHT22;14509;47.992;7.848;2024-02-04T23:29:21;13.60;54.00
2439;DHT22;14509;47.992;7.848;2024-02-04T23:31:23;12.10;53.00
2439;DHT22;14509;47.992;7.848;2024-02-04T23:33:25;12.50;53.50
2439;DHT22;14509;47.992;7.848;2024-02-04T23:35:27;13.60;54.60
2439;DHT22;14509;47.992;7.848;2024-02-04T23:37:29;13.70;54.90
2439;DHT22;14509;47.992;7.848;2024-02-04T23:39:34;11.80;53.80
2439;DHT22;14509;47.992;7.848;2024-02-04T23:41:35;11.70;54.40
2439;DHT22;14509;47.992;7.848;2024-02-04T23:43:38;12.30;54.30
2439;DHT22;14509;47.992;7.848;2024-02-04T23:45:40;11.70;53.80
2439;DHT22;14509;47.992;7.848;2024-02-04T23:47:42;13.50;55.40
2439;DHT22;14509;47.992;7.848;2024-02-04T23:49:44;11.60;53.90
2439;DHT22;14509;47.992;7.848;2024-02-04T23:51:46;11.60;53.80
2439;DHT22;14509;47.992;7.848;2024-02-04T23:53:48;11.60;53.80
2439;DHT22;14509;47.992;7.848;2024-02-04T23:55:50;11.50;53.90
2439;DHT22;14509;47.992;7.848;2024-02-04T23:57:52;11.50;54.00
2439;DHT22;14509;47.992;7.848;2024-02-04T23:59:55;11.50;54.00
